Time;durP1;ratioP1;P1;durP2;ratioP2;P2;SDS_P1;SDS_P2;PMS_P1;PMS_P2;Temp;Humidity;BMP_temperature;BMP_pressure;BME280_temperature;BME280_humidity;BME280_pressure;Samples;Min_cycle;Max_cycle;Signal;HPM_P1;HPM_P2
2023/04/16 00:01:25;;;;;;;2.87;2.63;;;;;;;;;;5073359;28;20202;-82
2023/04/16 00:03:53;;;;;;;12.73;3.53;;;;;;;;;;5072624;28;20267;-82
2023/04/16 00:06:23;;;;;;;6.07;3.67;;;;;;;;;;5072587;28;20195;-82
2023/04/16 00:08:53;;;;;;;3.63;2.93;;;;;;;;;;5072850;28;20195;-82
2023/04/16 00:11:21;;;;;;;5.23;3.43;;;;;;;;;;5072675;28;20238;-82
2023/04/16 00:13:49;;;;;;;5.80;2.70;;;;;;;;;;5072401;28;20226;-82
2023/04/16 00:16:18;;;;;;;6.67;3.60;;;;;;;;;;5072949;28;20195;-82
2023/04/16 00:18:46;;;;;;;8.77;3.20;;;;;;;;;;5072776;28;20209;-82
2023/04/16 00:21:15;;;;;;;7.13;5.00;;;;;;;;;;5073098;28;20233;-82
2023/04/16 00:23:43;;;;;;;5.37;3.73;;;;;;;;;;5072332;28;20218;-82
2023/04/16 00:26:13;;;;;;;7.40;3.40;;;;;;;;;;5072289;28;20195;-82
2023/04/16 00:28:41;;;;;;;25.20;4.30;;;;;;;;;;5072652;28;20198;-82
2023/04/16 00:31:09;;;;;;;9.20;4.67;;;;;;;;;;5072630;28;20234;-82
2023/04/16 00:33:38;;;;;;;14.70;4.37;;;;;;;;;;5072281;28;20226;-82
2023/04/16 00:36:07;;;;;;;11.67;4.23;;;;;;;;;;5071948;28;20297;-82
2023/04/16 00:38:35;;;;;;;9.37;4.70;;;;;;;;;;5072088;28;20231;-83
2023/04/16 00:41:03;;;;;;;7.63;4.93;;;;;;;;;;5072024;28;20234;-82
2023/04/16 00:43:33;;;;;;;12.07;4.93;;;;;;;;;;5071559;28;20297;-82
2023/04/16 00:46:05;;;;;;;9.47;5.70;;;;;;;;;;5072477;28;20208;-82
2023/04/16 00:48:34;;;;;;;5.03;3.97;;;;;;;;;;5072371;28;20203;-82
2023/04/16 00:51:03;;;;;;;11.93;5.30;;;;;;;;;;5071457;28;20247;-82
2023/04/16 00:53:31;;;;;;;15.97;6.07;;;;;;;;;;5072052;28;20202;-82
2023/04/16 00:56:00;;;;;;;15.27;6.63;;;;;;;;;;5071914;28;20206;-83
2023/04/16 00:58:29;;;;;;;8.50;5.73;;;;;;;;;;5071842;28;20206;-82
2023/04/16 01:00:59;;;;;;;7.07;5.23;;;;;;;;;;5070802;28;20221;-83
2023/04/16 01:03:32;;;;;;;11.60;5.00;;;;;;;;;;5071855;28;20226;-82
2023/04/16 01:06:01;;;;;;;5.90;5.40;;;;;;;;;;5071322;28;20202;-82
2023/04/16 01:08:30;;;;;;;10.77;5.67;;;;;;;;;;5071917;28;20205;-83
2023/04/16 01:10:58;;;;;;;8.37;5.17;;;;;;;;;;5071709;28;20222;-83
2023/04/16 01:13:26;;;;;;;10.47;5.83;;;;;;;;;;5071196;28;20288;-82
2023/04/16 01:15:55;;;;;;;8.83;4.53;;;;;;;;;;5071817;28;20320;-83
2023/04/16 01:18:26;;;;;;;8.33;4.90;;;;;;;;;;5071430;28;20206;-82
2023/04/16 01:20:55;;;;;;;6.00;4.40;;;;;;;;;;5071131;28;20292;-82
2023/04/16 01:23:24;;;;;;;5.33;4.77;;;;;;;;;;5071798;28;20244;-83
2023/04/16 01:25:52;;;;;;;8.73;4.93;;;;;;;;;;5072122;28;20198;-82
2023/04/16 01:28:21;;;;;;;9.00;4.90;;;;;;;;;;5071323;28;20246;-82
2023/04/16 01:30:49;;;;;;;14.83;6.23;;;;;;;;;;5071655;28;20275;-82
2023/04/16 01:33:18;;;;;;;7.07;3.70;;;;;;;;;;5071119;28;20191;-82
2023/04/16 01:35:47;;;;;;;5.27;3.40;;;;;;;;;;5071437;28;20262;-82
2023/04/16 01:38:17;;;;;;;5.27;3.67;;;;;;;;;;5071658;28;20255;-82
2023/04/16 01:40:45;;;;;;;4.60;1.90;;;;;;;;;;5071477;28;20238;-82
2023/04/16 01:43:13;;;;;;;9.63;3.60;;;;;;;;;;5071471;28;20234;-83
2023/04/16 01:45:42;;;;;;;5.77;3.33;;;;;;;;;;5071179;28;20250;-83
2023/04/16 01:48:10;;;;;;;8.43;4.70;;;;;;;;;;5071406;28;20237;-83
2023/04/16 01:50:39;;;;;;;9.60;4.37;;;;;;;;;;5071714;28;20195;-83
2023/04/16 01:53:08;;;;;;;5.27;3.03;;;;;;;;;;5071254;28;20223;-83
2023/04/16 01:55:38;;;;;;;11.20;4.33;;;;;;;;;;5071403;28;20226;-83
2023/04/16 01:58:09;;;;;;;7.37;2.77;;;;;;;;;;5071378;28;20290;-83
2023/04/16 02:00:38;;;;;;;4.50;2.73;;;;;;;;;;5071205;28;20205;-83
2023/04/16 02:03:06;;;;;;;6.27;3.60;;;;;;;;;;5071336;28;20208;-83
2023/04/16 02:05:35;;;;;;;5.80;2.97;;;;;;;;;;5071061;28;20238;-83
2023/04/16 02:08:03;;;;;;;6.40;2.90;;;;;;;;;;5071200;28;20207;-83
2023/04/16 02:10:31;;;;;;;3.50;2.50;;;;;;;;;;5071521;28;20202;-83
2023/04/16 02:13:01;;;;;;;6.07;3.50;;;;;;;;;;5073039;28;20307;-83
2023/04/16 02:15:30;;;;;;;11.97;4.43;;;;;;;;;;5075200;28;20228;-83
2023/04/16 02:17:58;;;;;;;7.77;2.63;;;;;;;;;;5075242;28;20204;-83
2023/04/16 02:20:27;;;;;;;7.70;3.37;;;;;;;;;;5075113;28;20202;-83
2023/04/16 02:22:56;;;;;;;9.77;3.47;;;;;;;;;;5074840;28;20222;-83
2023/04/16 02:25:24;;;;;;;3.03;2.13;;;;;;;;;;5074809;28;20214;-83
2023/04/16 02:27:53;;;;;;;5.63;2.57;;;;;;;;;;5074962;28;20242;-83
2023/04/16 02:30:23;;;;;;;4.93;2.87;;;;;;;;;;5074221;28;20199;-83
2023/04/16 02:32:51;;;;;;;11.13;2.90;;;;;;;;;;5074976;28;20239;-83
2023/04/16 02:35:20;;;;;;;3.20;2.90;;;;;;;;;;5075072;28;20294;-83
2023/04/16 02:37:48;;;;;;;9.27;2.90;;;;;;;;;;5074408;28;20233;-83
2023/04/16 02:40:17;;;;;;;8.20;2.83;;;;;;;;;;5074653;28;20204;-83
2023/04/16 02:42:45;;;;;;;1.80;1.70;;;;;;;;;;5074602;28;20342;-83
2023/04/16 02:45:13;;;;;;;5.87;2.33;;;;;;;;;;5074253;28;20315;-83
2023/04/16 02:47:43;;;;;;;7.70;2.60;;;;;;;;;;5074562;28;20293;-83
2023/04/16 02:50:12;;;;;;;9.10;2.80;;;;;;;;;;5074862;28;20233;-83
2023/04/16 02:52:40;;;;;;;8.47;3.70;;;;;;;;;;5074589;28;20202;-83
2023/04/16 02:55:09;;;;;;;8.27;2.60;;;;;;;;;;5074196;28;20198;-83
2023/04/16 02:57:38;;;;;;;4.80;3.00;;;;;;;;;;5074759;28;20268;-83
2023/04/16 03:00:07;;;;;;;3.63;2.83;;;;;;;;;;5074339;28;20268;-83
2023/04/16 03:02:35;;;;;;;11.27;3.83;;;;;;;;;;5073753;28;20199;-83
2023/04/16 03:05:06;;;;;;;6.60;3.80;;;;;;;;;;5073929;28;20218;-83
2023/04/16 03:07:34;;;;;;;5.47;2.83;;;;;;;;;;5074007;28;20209;-83
2023/04/16 03:10:03;;;;;;;7.60;3.97;;;;;;;;;;5073776;28;20202;-86
2023/04/16 03:12:31;;;;;;;11.20;2.97;;;;;;;;;;5074241;28;20200;-86
2023/04/16 03:15:00;;;;;;;5.87;3.03;;;;;;;;;;5074210;28;20229;-86
2023/04/16 03:17:28;;;;;;;2.77;2.57;;;;;;;;;;5073975;28;20198;-86
2023/04/16 03:19:56;;;;;;;3.30;2.87;;;;;;;;;;5074405;28;20297;-86
2023/04/16 03:22:26;;;;;;;7.67;3.70;;;;;;;;;;5074198;28;20239;-86
2023/04/16 03:24:55;;;;;;;9.50;4.47;;;;;;;;;;5072950;28;20223;-86
2023/04/16 03:27:23;;;;;;;11.50;3.80;;;;;;;;;;5073986;28;20241;-86
2023/04/16 03:29:52;;;;;;;9.17;2.93;;;;;;;;;;5074467;28;20210;-86
2023/04/16 03:32:20;;;;;;;6.40;3.60;;;;;;;;;;5073928;28;20199;-86
2023/04/16 03:34:48;;;;;;;7.93;5.53;;;;;;;;;;5074293;28;20195;-86
2023/04/16 03:37:17;;;;;;;11.93;5.97;;;;;;;;;;5074419;28;20204;-86
2023/04/16 03:39:47;;;;;;;6.67;3.43;;;;;;;;;;5073687;28;20204;-86
2023/04/16 03:42:15;;;;;;;3.43;3.07;;;;;;;;;;5073525;28;20232;-85
2023/04/16 03:44:44;;;;;;;3.43;3.13;;;;;;;;;;5073612;28;20212;-86
2023/04/16 03:47:12;;;;;;;6.93;4.57;;;;;;;;;;5073708;28;20235;-85
2023/04/16 03:49:41;;;;;;;5.27;4.77;;;;;;;;;;5073513;28;20191;-86
2023/04/16 03:52:10;;;;;;;6.10;3.50;;;;;;;;;;5073881;28;20203;-86
2023/04/16 03:54:38;;;;;;;7.30;4.43;;;;;;;;;;5073606;28;20200;-86
2023/04/16 03:57:08;;;;;;;5.90;3.90;;;;;;;;;;5073022;28;20202;-85
2023/04/16 03:59:36;;;;;;;7.30;3.97;;;;;;;;;;5073926;28;20208;-86
2023/04/16 04:02:05;;;;;;;8.03;4.27;;;;;;;;;;5073231;28;20242;-84
2023/04/16 04:04:33;;;;;;;7.03;3.80;;;;;;;;;;5073218;28;20203;-86
2023/04/16 04:07:02;;;;;;;11.60;4.77;;;;;;;;;;5073362;28;20232;-86
2023/04/16 04:09:30;;;;;;;7.57;3.90;;;;;;;;;;5073742;28;20254;-86
2023/04/16 04:11:58;;;;;;;9.87;4.33;;;;;;;;;;5072818;28;20211;-86
2023/04/16 04:14:28;;;;;;;7.60;3.67;;;;;;;;;;5073500;28;20215;-85
2023/04/16 04:16:57;;;;;;;9.20;4.10;;;;;;;;;;5072930;28;20255;-85
2023/04/16 04:19:25;;;;;;;13.40;4.90;;;;;;;;;;5073093;28;20254;-86
2023/04/16 04:21:53;;;;;;;5.17;3.53;;;;;;;;;;5073276;28;20247;-85
2023/04/16 04:24:22;;;;;;;4.10;3.70;;;;;;;;;;5073062;28;20239;-86
2023/04/16 04:26:50;;;;;;;4.40;3.40;;;;;;;;;;5072627;28;20247;-85
2023/04/16 04:29:19;;;;;;;4.53;3.13;;;;;;;;;;5072550;28;20241;-86
2023/04/16 04:31:49;;;;;;;6.90;3.63;;;;;;;;;;5072536;28;20298;-85
2023/04/16 04:34:17;;;;;;;6.57;3.90;;;;;;;;;;5072718;28;20207;-85
2023/04/16 04:36:45;;;;;;;7.77;4.60;;;;;;;;;;5072443;28;20199;-85
2023/04/16 04:39:15;;;;;;;11.23;4.47;;;;;;;;;;5072595;28;20203;-86
2023/04/16 04:41:43;;;;;;;6.87;3.33;;;;;;;;;;5072990;28;20199;-86
2023/04/16 04:44:12;;;;;;;9.80;4.83;;;;;;;;;;5072318;28;20274;-85
2023/04/16 04:46:40;;;;;;;8.03;5.70;;;;;;;;;;5072773;28;20230;-86
2023/04/16 04:49:10;;;;;;;3.27;3.03;;;;;;;;;;5072487;28;20348;-86
2023/04/16 04:51:38;;;;;;;12.77;5.03;;;;;;;;;;5072081;28;20207;-86
2023/04/16 04:54:07;;;;;;;13.10;5.77;;;;;;;;;;5072847;28;20202;-86
2023/04/16 04:56:35;;;;;;;12.17;4.37;;;;;;;;;;5072430;28;20206;-85
2023/04/16 04:59:03;;;;;;;10.93;4.37;;;;;;;;;;5072057;28;20204;-85
2023/04/16 05:01:32;;;;;;;10.77;5.60;;;;;;;;;;5072188;28;20208;-85
2023/04/16 05:04:00;;;;;;;3.87;2.87;;;;;;;;;;5071841;28;20237;-86
2023/04/16 05:06:30;;;;;;;6.13;4.20;;;;;;;;;;5071838;28;20253;-86
2023/04/16 05:08:59;;;;;;;7.63;4.77;;;;;;;;;;5071728;28;20191;-86
2023/04/16 05:11:27;;;;;;;15.37;5.53;;;;;;;;;;5072238;28;20293;-86
2023/04/16 05:13:56;;;;;;;5.83;4.13;;;;;;;;;;5072145;28;20234;-85
2023/04/16 05:16:24;;;;;;;7.70;4.07;;;;;;;;;;5072120;28;20251;-86
2023/04/16 05:18:54;;;;;;;9.57;4.83;;;;;;;;;;5072211;28;20210;-85
2023/04/16 05:21:23;;;;;;;8.67;3.33;;;;;;;;;;5071979;28;20202;-85
2023/04/16 05:23:53;;;;;;;18.63;5.27;;;;;;;;;;5072051;28;20207;-86
2023/04/16 05:26:21;;;;;;;15.47;6.40;;;;;;;;;;5071937;28;20216;-86
2023/04/16 05:28:50;;;;;;;12.03;6.70;;;;;;;;;;5072073;28;20207;-86
2023/04/16 05:31:18;;;;;;;6.20;5.60;;;;;;;;;;5071874;28;20297;-85
2023/04/16 05:33:47;;;;;;;7.10;5.00;;;;;;;;;;5071702;28;20203;-85
2023/04/16 05:36:15;;;;;;;5.07;4.67;;;;;;;;;;5071422;28;20289;-86
2023/04/16 05:38:43;;;;;;;8.10;4.73;;;;;;;;;;5071241;28;20207;-86
2023/04/16 05:41:13;;;;;;;7.10;4.63;;;;;;;;;;5071748;28;20240;-86
2023/04/16 05:43:41;;;;;;;11.40;5.17;;;;;;;;;;5071888;28;20269;-86
2023/04/16 05:46:10;;;;;;;10.50;5.10;;;;;;;;;;5071243;28;20283;-86
2023/04/16 05:48:38;;;;;;;13.77;4.97;;;;;;;;;;5071437;28;20209;-86
2023/04/16 05:51:06;;;;;;;10.43;4.97;;;;;;;;;;5071901;28;20204;-85
2023/04/16 05:53:35;;;;;;;3.30;3.00;;;;;;;;;;5071319;28;20204;-85
2023/04/16 05:56:03;;;;;;;18.60;3.37;;;;;;;;;;5071595;28;20194;-86
2023/04/16 05:58:33;;;;;;;5.20;4.70;;;;;;;;;;5071777;28;20208;-85
2023/04/16 06:01:02;;;;;;;9.97;4.80;;;;;;;;;;5071119;28;20217;-85
2023/04/16 06:03:30;;;;;;;8.20;5.10;;;;;;;;;;5072173;28;20231;-86
2023/04/16 06:05:59;;;;;;;6.53;4.70;;;;;;;;;;5071189;28;20290;-83
2023/04/16 06:08:27;;;;;;;6.73;4.13;;;;;;;;;;5070723;28;20286;-83
2023/04/16 06:10:56;;;;;;;10.87;5.37;;;;;;;;;;5071128;28;20248;-83
2023/04/16 06:13:25;;;;;;;13.97;5.97;;;;;;;;;;5071206;28;20206;-83
2023/04/16 06:15:55;;;;;;;8.87;4.43;;;;;;;;;;5071030;28;20241;-83
2023/04/16 06:18:24;;;;;;;18.03;7.87;;;;;;;;;;5071251;28;20214;-83
2023/04/16 06:20:52;;;;;;;16.07;5.00;;;;;;;;;;5071431;28;20211;-83
2023/04/16 06:23:21;;;;;;;8.40;5.67;;;;;;;;;;5070787;28;20219;-82
2023/04/16 06:25:49;;;;;;;10.77;5.80;;;;;;;;;;5071466;28;20230;-83
2023/04/16 06:28:17;;;;;;;5.67;4.30;;;;;;;;;;5070829;28;20322;-86
2023/04/16 06:30:47;;;;;;;12.17;6.47;;;;;;;;;;5071071;28;20200;-85
2023/04/16 06:33:17;;;;;;;9.17;4.90;;;;;;;;;;5071588;28;20262;-86
2023/04/16 06:35:45;;;;;;;8.23;4.70;;;;;;;;;;5071493;28;20204;-86
2023/04/16 06:38:13;;;;;;;5.50;4.97;;;;;;;;;;5070978;28;20223;-85
2023/04/16 06:40:42;;;;;;;8.90;6.13;;;;;;;;;;5071129;28;20260;-86
2023/04/16 06:43:10;;;;;;;4.43;3.93;;;;;;;;;;5071033;28;20330;-86
2023/04/16 06:45:39;;;;;;;4.57;4.17;;;;;;;;;;5070990;28;20270;-85
2023/04/16 06:48:07;;;;;;;9.40;4.37;;;;;;;;;;5070628;28;20259;-85
2023/04/16 06:50:37;;;;;;;7.83;4.53;;;;;;;;;;5071012;28;20246;-86
2023/04/16 06:53:05;;;;;;;6.20;4.77;;;;;;;;;;5070914;28;20199;-86
2023/04/16 06:55:34;;;;;;;6.43;4.70;;;;;;;;;;5070817;28;20267;-85
2023/04/16 06:58:02;;;;;;;8.03;3.57;;;;;;;;;;5071018;28;20294;-86
2023/04/16 07:00:31;;;;;;;7.13;4.20;;;;;;;;;;5074678;28;20291;-86
2023/04/16 07:03:02;;;;;;;8.97;4.77;;;;;;;;;;5074147;28;20288;-86
2023/04/16 07:05:30;;;;;;;6.07;3.47;;;;;;;;;;5074346;28;20199;-85
2023/04/16 07:08:00;;;;;;;8.00;4.40;;;;;;;;;;5074354;28;20224;-85
2023/04/16 07:10:29;;;;;;;11.97;4.27;;;;;;;;;;5074026;28;20290;-85
2023/04/16 07:13:00;;;;;;;7.17;4.77;;;;;;;;;;5074657;28;20268;-86
2023/04/16 07:15:28;;;;;;;11.57;6.13;;;;;;;;;;5074391;28;20213;-85
2023/04/16 07:17:57;;;;;;;8.90;3.57;;;;;;;;;;5074071;28;20323;-85
2023/04/16 07:20:25;;;;;;;10.07;4.33;;;;;;;;;;5074479;28;20274;-85
2023/04/16 07:22:54;;;;;;;6.13;4.87;;;;;;;;;;5074340;28;20248;-85
2023/04/16 07:25:23;;;;;;;4.93;3.40;;;;;;;;;;5074208;28;20202;-86
2023/04/16 07:27:52;;;;;;;6.80;4.90;;;;;;;;;;5073842;28;20231;-86
2023/04/16 07:30:20;;;;;;;6.63;4.30;;;;;;;;;;5074216;28;20232;-85
2023/04/16 07:32:49;;;;;;;6.53;4.70;;;;;;;;;;5074097;28;20198;-86
2023/04/16 07:35:17;;;;;;;11.50;6.50;;;;;;;;;;5073713;28;20213;-86
2023/04/16 07:37:46;;;;;;;5.93;3.53;;;;;;;;;;5073988;28;20199;-83
2023/04/16 07:40:14;;;;;;;6.77;4.33;;;;;;;;;;5074016;28;20199;-83
2023/04/16 07:42:44;;;;;;;3.70;2.63;;;;;;;;;;5073242;28;20326;-83
2023/04/16 07:45:13;;;;;;;5.13;3.50;;;;;;;;;;5073783;28;20270;-83
2023/04/16 07:47:41;;;;;;;8.77;4.47;;;;;;;;;;5073684;28;20285;-83
2023/04/16 07:50:10;;;;;;;2.80;2.60;;;;;;;;;;5073184;28;20194;-83
2023/04/16 07:52:40;;;;;;;5.97;3.47;;;;;;;;;;5073458;28;20199;-83
2023/04/16 07:55:09;;;;;;;5.37;2.53;;;;;;;;;;5073731;28;20293;-83
2023/04/16 07:57:37;;;;;;;7.33;4.73;;;;;;;;;;5073156;28;20206;-83
2023/04/16 08:00:08;;;;;;;8.80;5.43;;;;;;;;;;5073212;28;20206;-83
2023/04/16 08:02:36;;;;;;;6.57;4.27;;;;;;;;;;5072995;28;20208;-83
2023/04/16 08:05:05;;;;;;;4.97;4.17;;;;;;;;;;5072763;28;20277;-83
2023/04/16 08:07:34;;;;;;;12.40;6.13;;;;;;;;;;5072840;28;20205;-83
2023/04/16 08:10:02;;;;;;;10.40;5.20;;;;;;;;;;5073292;28;20294;-83
2023/04/16 08:12:31;;;;;;;5.20;4.80;;;;;;;;;;5072797;28;20200;-83
2023/04/16 08:14:59;;;;;;;10.30;6.10;;;;;;;;;;5072860;28;20250;-83
2023/04/16 08:17:29;;;;;;;4.23;3.87;;;;;;;;;;5073235;28;20268;-83
2023/04/16 08:19:57;;;;;;;6.37;4.83;;;;;;;;;;5072873;28;20210;-83
2023/04/16 08:22:26;;;;;;;7.67;6.97;;;;;;;;;;5072787;28;20418;-83
2023/04/16 08:24:54;;;;;;;7.27;5.13;;;;;;;;;;5072771;28;20262;-83
2023/04/16 08:27:23;;;;;;;6.70;5.03;;;;;;;;;;5072452;28;20256;-83
2023/04/16 08:29:54;;;;;;;7.90;5.23;;;;;;;;;;5071908;28;20227;-84
2023/04/16 08:32:22;;;;;;;8.80;4.70;;;;;;;;;;5072121;28;20203;-83
2023/04/16 08:34:55;;;;;;;6.80;4.77;;;;;;;;;;5072077;28;20204;-83
2023/04/16 08:37:23;;;;;;;4.53;3.83;;;;;;;;;;5072761;28;20253;-84
2023/04/16 08:39:51;;;;;;;5.27;4.07;;;;;;;;;;5073551;28;20215;-82
2023/04/16 08:42:25;;;;;;;7.10;5.00;;;;;;;;;;5071436;28;20212;-84
2023/04/16 08:44:57;;;;;;;8.37;4.97;;;;;;;;;;5072900;28;20236;-84
2023/04/16 08:47:30;;;;;;;9.73;5.63;;;;;;;;;;5073092;28;20200;-84
2023/04/16 08:50:00;;;;;;;5.17;3.73;;;;;;;;;;5072636;28;20205;-84
2023/04/16 08:52:30;;;;;;;9.17;5.43;;;;;;;;;;5071728;28;20311;-84
2023/04/16 08:55:05;;;;;;;8.10;4.23;;;;;;;;;;5072916;28;20206;-84
2023/04/16 08:57:39;;;;;;;4.83;4.10;;;;;;;;;;5071904;28;20220;-85
2023/04/16 09:00:09;;;;;;;2.93;2.73;;;;;;;;;;5071604;28;20315;-84
2023/04/16 09:02:37;;;;;;;8.33;4.90;;;;;;;;;;5072010;28;20224;-84
2023/04/16 09:05:08;;;;;;;9.57;4.07;;;;;;;;;;5071863;28;20267;-84
2023/04/16 09:07:37;;;;;;;6.03;4.30;;;;;;;;;;5071769;28;20204;-84
2023/04/16 09:10:07;;;;;;;7.97;5.40;;;;;;;;;;5072090;28;20295;-84
2023/04/16 09:12:36;;;;;;;13.53;4.80;;;;;;;;;;5071835;28;20257;-84
2023/04/16 09:15:05;;;;;;;6.87;4.57;;;;;;;;;;5071635;28;20207;-84
2023/04/16 09:17:35;;;;;;;9.43;4.43;;;;;;;;;;5071526;28;20254;-84
2023/04/16 09:20:04;;;;;;;6.53;3.97;;;;;;;;;;5071975;28;20204;-84
2023/04/16 09:22:34;;;;;;;7.43;5.43;;;;;;;;;;5070314;28;20208;-84
2023/04/16 09:25:02;;;;;;;13.93;4.33;;;;;;;;;;5071832;28;20232;-84
2023/04/16 09:27:31;;;;;;;3.90;3.47;;;;;;;;;;5071876;28;20230;-84
2023/04/16 09:30:00;;;;;;;6.17;4.70;;;;;;;;;;5071289;28;20312;-84
2023/04/16 09:32:29;;;;;;;6.27;4.57;;;;;;;;;;5071889;28;20202;-85
2023/04/16 09:34:58;;;;;;;4.80;3.90;;;;;;;;;;5072204;28;20208;-84
2023/04/16 09:37:28;;;;;;;3.83;3.53;;;;;;;;;;5071182;28;20197;-84
2023/04/16 09:39:59;;;;;;;5.40;4.73;;;;;;;;;;5071634;28;20205;-85
2023/04/16 09:42:28;;;;;;;8.40;4.47;;;;;;;;;;5071990;28;20201;-84
2023/04/16 09:44:57;;;;;;;5.53;4.87;;;;;;;;;;5071511;28;20328;-84
2023/04/16 09:47:39;;;;;;;6.43;3.53;;;;;;;;;;5071607;28;20229;-84
2023/04/16 09:50:08;;;;;;;5.37;3.50;;;;;;;;;;5071209;28;20328;-84
2023/04/16 09:52:40;;;;;;;5.77;4.63;;;;;;;;;;5071579;28;20231;-84
2023/04/16 09:55:10;;;;;;;12.97;5.17;;;;;;;;;;5071222;28;20227;-84
2023/04/16 09:57:39;;;;;;;8.97;4.30;;;;;;;;;;5071442;28;20251;-84
2023/04/16 10:00:11;;;;;;;6.63;2.47;;;;;;;;;;5071691;28;20197;-84
2023/04/16 10:02:41;;;;;;;4.77;3.10;;;;;;;;;;5071492;28;20251;-84
2023/04/16 10:05:10;;;;;;;4.00;2.87;;;;;;;;;;5071664;28;20205;-84
2023/04/16 10:07:38;;;;;;;5.37;3.97;;;;;;;;;;5071323;28;20209;-84
2023/04/16 10:10:07;;;;;;;4.80;4.33;;;;;;;;;;5070913;28;20321;-84
2023/04/16 10:12:37;;;;;;;4.90;3.90;;;;;;;;;;5071405;28;20211;-84
2023/04/16 10:15:06;;;;;;;9.80;3.13;;;;;;;;;;5071222;28;20222;-84
2023/04/16 10:17:35;;;;;;;3.07;2.87;;;;;;;;;;5070838;28;20215;-85
2023/04/16 10:20:04;;;;;;;11.57;3.70;;;;;;;;;;5071233;28;20190;-85
2023/04/16 10:22:32;;;;;;;3.70;2.47;;;;;;;;;;5071195;28;20202;-85
2023/04/16 10:25:01;;;;;;;4.93;3.67;;;;;;;;;;5070835;28;20205;-85
2023/04/16 10:27:30;;;;;;;4.87;3.43;;;;;;;;;;5071258;28;20312;-85
2023/04/16 10:30:00;;;;;;;6.43;2.53;;;;;;;;;;5070658;28;20296;-84
2023/04/16 10:32:30;;;;;;;6.83;4.67;;;;;;;;;;5070965;28;20267;-85
2023/04/16 10:34:58;;;;;;;4.90;3.17;;;;;;;;;;5074091;28;20237;-84
2023/04/16 10:37:31;;;;;;;4.77;3.37;;;;;;;;;;5074825;28;20206;-85
2023/04/16 10:39:59;;;;;;;3.57;3.27;;;;;;;;;;5074500;28;20248;-85
2023/04/16 10:42:28;;;;;;;5.17;3.73;;;;;;;;;;5074576;28;20225;-85
2023/04/16 10:45:01;;;;;;;2.17;1.97;;;;;;;;;;5074104;28;20256;-85
2023/04/16 10:47:30;;;;;;;4.10;3.57;;;;;;;;;;5074659;28;20216;-85
2023/04/16 10:49:58;;;;;;;6.40;4.90;;;;;;;;;;5074232;28;20227;-85
2023/04/16 10:52:30;;;;;;;8.23;3.97;;;;;;;;;;5074839;28;20266;-85
2023/04/16 10:55:00;;;;;;;8.80;4.97;;;;;;;;;;5074315;28;20240;-85
2023/04/16 10:57:30;;;;;;;16.73;5.70;;;;;;;;;;5073981;28;20200;-85
2023/04/16 10:59:58;;;;;;;5.07;3.83;;;;;;;;;;5074243;28;20230;-85
2023/04/16 11:02:30;;;;;;;6.13;3.37;;;;;;;;;;5074586;28;20306;-85
2023/04/16 11:04:58;;;;;;;6.70;4.37;;;;;;;;;;5074434;28;20206;-85
2023/04/16 11:07:33;;;;;;;4.60;4.20;;;;;;;;;;5074246;28;20204;-85
2023/04/16 11:10:04;;;;;;;3.20;2.90;;;;;;;;;;5074545;28;20213;-85
2023/04/16 11:12:36;;;;;;;4.80;2.97;;;;;;;;;;5073806;28;20206;-85
2023/04/16 11:15:05;;;;;;;4.30;3.40;;;;;;;;;;5073853;28;20201;-85
2023/04/16 11:17:37;;;;;;;5.40;4.53;;;;;;;;;;5074083;28;20193;-83
2023/04/16 11:20:07;;;;;;;12.30;5.23;;;;;;;;;;5073810;28;20205;-83
2023/04/16 11:22:47;;;;;;;8.77;5.13;;;;;;;;;;5073992;28;20197;-83
2023/04/16 11:25:19;;;;;;;5.10;3.73;;;;;;;;;;5073870;28;20231;-83
2023/04/16 11:27:48;;;;;;;7.20;3.97;;;;;;;;;;5073673;28;20225;-83
2023/04/16 11:30:16;;;;;;;4.63;4.27;;;;;;;;;;5074319;28;20217;-83
2023/04/16 11:32:46;;;;;;;5.83;3.37;;;;;;;;;;5073787;28;20217;-83
2023/04/16 11:35:15;;;;;;;6.73;4.53;;;;;;;;;;5073268;28;20197;-83
2023/04/16 11:37:44;;;;;;;5.20;3.93;;;;;;;;;;5073753;28;20313;-83
2023/04/16 11:40:13;;;;;;;8.47;3.57;;;;;;;;;;5073867;28;20225;-83
2023/04/16 11:42:43;;;;;;;10.13;6.23;;;;;;;;;;5073327;28;20321;-83
2023/04/16 11:45:12;;;;;;;12.03;5.47;;;;;;;;;;5072314;28;20234;-83
2023/04/16 11:47:46;;;;;;;7.27;3.47;;;;;;;;;;5073611;28;20201;-83
2023/04/16 11:50:18;;;;;;;7.57;4.87;;;;;;;;;;5072929;28;20224;-82
2023/04/16 11:52:47;;;;;;;5.30;3.27;;;;;;;;;;5073184;28;20197;-83
2023/04/16 11:55:16;;;;;;;6.30;3.43;;;;;;;;;;5073093;28;20205;-82
2023/04/16 11:57:44;;;;;;;2.77;2.53;;;;;;;;;;5072996;28;20256;-82
2023/04/16 12:00:13;;;;;;;4.57;4.23;;;;;;;;;;5073197;28;20197;-83
2023/04/16 12:02:43;;;;;;;9.67;4.67;;;;;;;;;;5073044;28;20194;-83
2023/04/16 12:05:30;;;;;;;7.60;3.50;;;;;;;;;;5073047;28;20198;-83
2023/04/16 12:07:58;;;;;;;4.30;2.83;;;;;;;;;;5073080;28;20200;-83
2023/04/16 12:10:27;;;;;;;4.50;3.10;;;;;;;;;;5072792;28;20209;-83
2023/04/16 12:12:55;;;;;;;4.33;3.53;;;;;;;;;;5072716;28;20225;-83
2023/04/16 12:15:24;;;;;;;4.30;3.93;;;;;;;;;;5073170;28;20316;-83
2023/04/16 12:18:06;;;;;;;3.53;3.23;;;;;;;;;;5073378;28;20202;-83
2023/04/16 12:20:41;;;;;;;3.07;2.13;;;;;;;;;;5072420;28;20213;-83
2023/04/16 12:23:10;;;;;;;6.23;4.53;;;;;;;;;;5072767;28;20244;-83
2023/04/16 12:25:39;;;;;;;10.60;3.57;;;;;;;;;;5072974;28;20197;-83
2023/04/16 12:28:08;;;;;;;2.80;2.60;;;;;;;;;;5072866;28;20249;-83
2023/04/16 12:30:50;;;;;;;4.83;4.33;;;;;;;;;;5072637;28;20247;-83
2023/04/16 12:33:20;;;;;;;12.20;5.27;;;;;;;;;;5073120;28;20198;-87
2023/04/16 12:35:49;;;;;;;13.20;5.47;;;;;;;;;;5073799;28;20208;-87
2023/04/16 12:38:18;;;;;;;8.83;4.30;;;;;;;;;;5073642;28;20228;-86
2023/04/16 12:40:48;;;;;;;7.83;4.73;;;;;;;;;;5073652;28;20202;-87
2023/04/16 12:43:16;;;;;;;7.13;3.73;;;;;;;;;;5073290;28;20201;-88
2023/04/16 12:45:45;;;;;;;5.60;2.57;;;;;;;;;;5073241;28;20208;-87
2023/04/16 12:48:13;;;;;;;5.70;3.67;;;;;;;;;;5073598;28;20247;-87
2023/04/16 12:50:43;;;;;;;11.87;4.70;;;;;;;;;;5073570;28;20321;-86
2023/04/16 12:53:13;;;;;;;14.87;6.00;;;;;;;;;;5073218;28;20297;-86
2023/04/16 12:55:41;;;;;;;16.33;3.77;;;;;;;;;;5073491;28;20209;-87
2023/04/16 12:58:09;;;;;;;5.63;3.00;;;;;;;;;;5072887;28;20194;-87
2023/04/16 13:00:40;;;;;;;14.40;6.23;;;;;;;;;;5073096;28;20217;-87
2023/04/16 13:03:09;;;;;;;6.77;3.83;;;;;;;;;;5072933;28;20206;-87
2023/04/16 13:05:37;;;;;;;9.83;4.20;;;;;;;;;;5073501;28;20201;-87
2023/04/16 13:08:06;;;;;;;7.07;4.23;;;;;;;;;;5072400;28;20296;-87
2023/04/16 13:10:36;;;;;;;9.73;5.37;;;;;;;;;;5072878;28;20218;-87
2023/04/16 13:13:04;;;;;;;4.70;3.50;;;;;;;;;;5072934;28;20300;-87
2023/04/16 13:15:33;;;;;;;3.37;2.93;;;;;;;;;;5072631;28;20227;-87
2023/04/16 13:18:01;;;;;;;5.17;3.83;;;;;;;;;;5072840;28;20197;-87
2023/04/16 13:20:30;;;;;;;11.80;5.23;;;;;;;;;;5072973;28;20206;-87
2023/04/16 13:22:58;;;;;;;11.10;5.70;;;;;;;;;;5072209;28;20292;-87
2023/04/16 13:25:27;;;;;;;8.17;3.97;;;;;;;;;;5072334;28;20259;-86
2023/04/16 13:27:56;;;;;;;10.00;6.50;;;;;;;;;;5072660;28;20240;-87
2023/04/16 13:30:25;;;;;;;9.03;5.67;;;;;;;;;;5072498;28;20219;-87
2023/04/16 13:32:53;;;;;;;19.07;6.43;;;;;;;;;;5072518;28;20198;-87
2023/04/16 13:35:22;;;;;;;4.37;3.53;;;;;;;;;;5072678;28;20208;-86
2023/04/16 13:37:50;;;;;;;12.20;5.93;;;;;;;;;;5072838;28;20225;-87
2023/04/16 13:40:19;;;;;;;9.13;5.23;;;;;;;;;;5072408;28;20252;-87
2023/04/16 13:42:47;;;;;;;8.23;4.73;;;;;;;;;;5072566;28;20257;-87
2023/04/16 13:45:19;;;;;;;5.30;4.80;;;;;;;;;;5071777;28;20264;-87
2023/04/16 13:47:47;;;;;;;14.30;7.40;;;;;;;;;;5071612;28;20255;-86
2023/04/16 13:50:16;;;;;;;4.30;3.53;;;;;;;;;;5071949;28;20314;-87
2023/04/16 13:52:45;;;;;;;10.50;4.47;;;;;;;;;;5071722;28;20227;-87
2023/04/16 13:55:16;;;;;;;5.67;4.87;;;;;;;;;;5071788;28;20305;-87
2023/04/16 13:57:45;;;;;;;6.87;4.13;;;;;;;;;;5071888;28;20216;-87
2023/04/16 14:00:15;;;;;;;8.07;5.93;;;;;;;;;;5072163;28;20202;-87
2023/04/16 14:02:47;;;;;;;5.33;3.17;;;;;;;;;;5071481;28;20248;-86
2023/04/16 14:05:16;;;;;;;8.67;5.53;;;;;;;;;;5071892;28;20201;-87
2023/04/16 14:07:45;;;;;;;14.47;6.00;;;;;;;;;;5071781;28;20202;-86
2023/04/16 14:10:13;;;;;;;7.77;5.70;;;;;;;;;;5075053;28;20194;-87
2023/04/16 14:12:41;;;;;;;8.23;4.23;;;;;;;;;;5076185;28;20248;-87
2023/04/16 14:15:13;;;;;;;7.43;4.53;;;;;;;;;;5076023;28;20206;-87
2023/04/16 14:17:42;;;;;;;11.47;7.07;;;;;;;;;;5075163;28;20296;-86
2023/04/16 14:20:13;;;;;;;7.20;5.07;;;;;;;;;;5075921;28;20197;-87
2023/04/16 14:22:43;;;;;;;4.83;4.40;;;;;;;;;;5075870;28;20224;-87
2023/04/16 14:25:11;;;;;;;7.10;5.30;;;;;;;;;;5075348;28;20247;-87
2023/04/16 14:27:40;;;;;;;8.80;5.00;;;;;;;;;;5075359;28;20225;-86
2023/04/16 14:30:09;;;;;;;3.80;3.40;;;;;;;;;;5075255;28;20201;-87
2023/04/16 14:32:37;;;;;;;15.13;5.43;;;;;;;;;;5074975;28;20225;-86
2023/04/16 14:35:07;;;;;;;9.33;7.50;;;;;;;;;;5075248;28;20197;-86
2023/04/16 14:37:37;;;;;;;7.17;6.23;;;;;;;;;;5075257;28;20193;-87
2023/04/16 14:40:07;;;;;;;11.10;7.03;;;;;;;;;;5075134;28;20324;-87
2023/04/16 14:42:36;;;;;;;9.53;6.40;;;;;;;;;;5074788;28;20194;-87
2023/04/16 14:45:05;;;;;;;10.43;5.97;;;;;;;;;;5075277;28;20237;-87
2023/04/16 14:47:34;;;;;;;13.40;7.10;;;;;;;;;;5074874;28;20300;-87
2023/04/16 14:50:02;;;;;;;12.10;5.93;;;;;;;;;;5074940;28;20242;-87
2023/04/16 14:52:31;;;;;;;5.47;4.97;;;;;;;;;;5075064;28;20248;-86